createdAt,value
2022-10-15T00:00:18.640Z,96380.00
2022-10-15T00:04:18.884Z,96384.66
2022-10-15T00:08:21.734Z,96383.75
2022-10-15T00:12:21.839Z,96373.34
2022-10-15T00:16:25.606Z,96373.59
2022-10-15T00:20:26.071Z,96365.63
2022-10-15T00:24:28.957Z,96371.41
2022-10-15T00:28:31.950Z,96373.41
2022-10-15T00:32:35.100Z,96373.00
2022-10-15T00:36:40.444Z,96347.75
2022-10-15T00:40:44.282Z,96362.84
2022-10-15T00:44:57.926Z,96360.22
2022-10-15T00:49:05.369Z,96360.53
2022-10-15T00:53:11.424Z,96354.41
2022-10-15T00:57:16.214Z,96325.38
2022-10-15T01:01:16.828Z,96330.97
2022-10-15T01:05:19.907Z,96326.06
2022-10-15T01:09:20.315Z,96329.88
2022-10-15T01:13:36.927Z,96320.66
2022-10-15T01:17:47.943Z,96317.31
2022-10-15T01:21:57.308Z,96299.66
2022-10-15T01:26:24.504Z,96296.50
2022-10-15T01:30:30.668Z,96286.97
2022-10-15T01:34:43.485Z,96272.03
2022-10-15T01:39:01.135Z,96285.72
2022-10-15T01:43:08.675Z,96291.38
2022-10-15T01:47:27.423Z,96289.19
2022-10-15T01:51:30.088Z,96273.97
2022-10-15T01:55:34.526Z,96278.91
2022-10-15T01:59:37.722Z,96282.94
2022-10-15T02:03:51.141Z,96275.44
2022-10-15T02:08:03.293Z,96253.06
2022-10-15T02:12:24.538Z,96255.63
2022-10-15T02:16:33.703Z,96250.03
2022-10-15T02:20:45.168Z,96242.91
2022-10-15T02:24:55.420Z,96242.91
2022-10-15T02:29:02.820Z,96253.69
2022-10-15T02:33:03.644Z,96245.44
2022-10-15T02:37:09.922Z,96242.72
2022-10-15T02:41:12.180Z,96219.75
2022-10-15T02:45:13.597Z,96223.53
2022-10-15T02:49:15.239Z,96231.00
2022-10-15T02:53:18.007Z,96231.94
2022-10-15T02:57:18.376Z,96222.75
2022-10-15T03:01:19.470Z,96224.50
2022-10-15T03:05:20.758Z,96229.25
2022-10-15T03:09:24.146Z,96224.50
2022-10-15T03:13:24.315Z,96223.09
2022-10-15T03:17:26.381Z,96210.56
2022-10-15T03:21:28.705Z,96221.34
2022-10-15T03:25:37.102Z,96220.25
2022-10-15T03:29:38.567Z,96204.22
2022-10-15T03:33:38.836Z,96205.47
2022-10-15T03:37:39.642Z,96192.75
2022-10-15T03:46:11.053Z,96201.63
2022-10-15T03:50:16.230Z,96204.53
2022-10-15T03:54:17.247Z,96209.25
2022-10-15T03:58:26.168Z,96207.03
2022-10-15T04:02:30.330Z,96189.72
2022-10-15T04:06:30.713Z,96197.19
2022-10-15T04:10:36.321Z,96197.00
2022-10-15T04:14:39.226Z,96177.94
2022-10-15T04:18:39.512Z,96193.31
2022-10-15T04:22:40.796Z,96191.59
2022-10-15T04:26:41.742Z,96202.34
2022-10-15T04:30:44.644Z,96199.47
2022-10-15T04:34:46.964Z,96181.84
2022-10-15T04:38:48.497Z,96195.81
2022-10-15T04:42:56.200Z,96208.31
2022-10-15T04:47:00.613Z,96203.59
2022-10-15T04:51:19.126Z,96208.84
2022-10-15T04:55:34.441Z,96153.47
2022-10-15T04:59:36.141Z,96205.50
2022-10-15T05:04:17.629Z,96208.34
2022-10-15T05:08:17.817Z,96208.31
2022-10-15T05:12:34.475Z,96207.69
2022-10-15T05:16:35.396Z,96209.31
2022-10-15T05:20:38.518Z,96212.16
2022-10-15T05:24:39.051Z,96218.34
2022-10-15T05:28:54.776Z,96156.97
2022-10-15T05:32:59.320Z,96219.44
2022-10-15T05:37:02.319Z,96226.44
2022-10-15T05:41:02.438Z,96206.44
2022-10-15T05:45:02.682Z,96192.31
2022-10-15T05:49:02.980Z,96191.22
2022-10-15T05:53:13.768Z,96220.56
2022-10-15T05:57:22.069Z,96211.81
2022-10-15T06:01:23.180Z,96245.00
2022-10-15T06:05:26.653Z,96245.31
2022-10-15T06:09:30.801Z,96243.72
2022-10-15T06:13:30.982Z,96232.28
2022-10-15T06:17:31.392Z,96245.78
2022-10-15T06:21:31.703Z,96232.78
2022-10-15T06:25:35.019Z,96249.59
2022-10-15T06:29:35.124Z,96231.31
2022-10-15T06:33:37.355Z,96258.03
2022-10-15T06:37:37.646Z,96270.38
2022-10-15T06:41:40.367Z,96274.19
2022-10-15T06:45:45.203Z,96280.06
2022-10-15T06:49:50.852Z,96279.09
2022-10-15T06:53:51.054Z,96278.50
2022-10-15T06:57:54.666Z,96287.31
2022-10-15T07:01:55.575Z,96293.53
2022-10-15T07:05:55.662Z,96298.94
2022-10-15T07:09:56.073Z,96302.44
2022-10-15T07:13:58.755Z,96304.19
2022-10-15T07:18:01.633Z,96308.63
2022-10-15T07:22:02.938Z,96312.13
2022-10-15T07:26:04.193Z,96319.06
2022-10-15T07:30:09.938Z,96325.88
2022-10-15T07:34:10.229Z,96326.34
2022-10-15T07:38:10.330Z,96327.94
2022-10-15T07:46:13.661Z,96323.28
2022-10-15T07:50:13.787Z,96341.47
2022-10-15T07:54:13.861Z,96343.19
2022-10-15T07:58:13.945Z,96342.47
2022-10-15T08:02:19.792Z,96346.75
2022-10-15T08:06:20.516Z,96334.81
2022-10-15T08:10:20.948Z,96351.94
2022-10-15T08:14:21.189Z,96361.66
2022-10-15T08:18:24.081Z,96354.09
2022-10-15T08:22:25.591Z,96361.75
2022-10-15T08:26:29.314Z,96362.59
2022-10-15T08:30:29.531Z,96362.59
2022-10-15T08:34:32.298Z,96373.28
2022-10-15T08:38:34.767Z,96362.41
2022-10-15T08:42:40.232Z,96387.28
2022-10-15T08:46:49.060Z,96389.78
2022-10-15T08:50:59.773Z,96408.41
2022-10-15T08:55:02.929Z,96416.16
2022-10-15T08:59:16.176Z,96402.41
2022-10-15T09:03:34.734Z,96418.41
2022-10-15T09:07:45.114Z,96422.66
2022-10-15T09:11:59.710Z,96418.56
2022-10-15T09:16:16.456Z,96423.00
2022-10-15T09:20:21.621Z,96428.53
2022-10-15T09:24:32.889Z,96439.75
2022-10-15T09:28:43.648Z,96427.44
2022-10-15T09:32:55.790Z,96443.16
2022-10-15T09:37:05.889Z,96453.81
2022-10-15T09:41:27.528Z,96444.06
2022-10-15T09:45:28.302Z,96447.59
2022-10-15T09:49:35.448Z,96434.84
2022-10-15T09:53:55.278Z,96454.34
2022-10-15T09:58:04.589Z,96463.03
2022-10-15T10:02:07.869Z,96470.72
2022-10-15T10:06:12.488Z,96468.00
2022-10-15T10:10:30.082Z,96477.41
2022-10-15T10:14:36.558Z,96491.31
2022-10-15T10:18:37.723Z,96498.00
2022-10-15T10:22:50.523Z,96483.09
2022-10-15T10:26:52.104Z,96499.31
2022-10-15T10:31:04.516Z,96482.69
2022-10-15T10:35:07.587Z,96497.22
2022-10-15T10:39:28.271Z,96503.84
2022-10-15T10:43:32.578Z,96508.88
2022-10-15T10:47:40.127Z,96506.56
2022-10-15T10:51:52.705Z,96514.69
2022-10-15T10:55:54.651Z,96506.00
2022-10-15T10:59:59.826Z,96508.88
2022-10-15T11:04:02.617Z,96509.13
2022-10-15T11:08:16.789Z,96506.56
2022-10-15T11:12:55.947Z,96509.09
2022-10-15T11:17:10.495Z,96517.44
2022-10-15T11:21:29.996Z,96523.13
2022-10-15T11:25:43.678Z,96533.78
2022-10-15T11:29:56.511Z,96532.03
2022-10-15T11:34:20.649Z,96537.13
2022-10-15T11:38:36.767Z,96536.38
2022-10-15T11:42:46.047Z,96529.44
2022-10-15T11:46:56.399Z,96524.81
2022-10-15T11:51:05.655Z,96527.75
2022-10-15T11:55:20.285Z,96542.16
2022-10-15T11:59:36.413Z,96532.47
2022-10-15T12:03:48.330Z,96535.16
2022-10-15T12:07:51.399Z,96534.91
2022-10-15T12:12:08.242Z,96530.91
2022-10-15T12:16:27.802Z,96518.63
2022-10-15T12:20:29.980Z,96521.00
2022-10-15T12:24:58.236Z,96509.59
2022-10-15T12:29:05.341Z,96514.47
2022-10-15T12:33:07.725Z,96500.38
2022-10-15T12:37:18.464Z,96508.59
2022-10-15T12:41:18.687Z,96510.66
2022-10-15T12:45:34.639Z,96513.56
2022-10-15T12:50:03.855Z,96506.28
2022-10-15T12:54:04.246Z,96519.34
2022-10-15T12:58:08.443Z,96505.06
2022-10-15T13:02:38.867Z,96496.75
2022-10-15T13:06:41.554Z,96493.75
2022-10-15T13:10:50.615Z,96507.91
2022-10-15T13:14:58.048Z,96505.22
2022-10-15T13:19:00.822Z,96506.28
2022-10-15T13:23:30.116Z,96515.91
2022-10-15T13:27:34.736Z,96519.78
2022-10-15T13:31:39.652Z,96521.47
2022-10-15T13:35:43.114Z,96520.47
2022-10-15T13:39:44.366Z,96505.50
2022-10-15T13:43:58.881Z,96522.06
2022-10-15T13:47:59.388Z,96516.56
2022-10-15T13:52:02.106Z,96526.59
2022-10-15T13:56:06.197Z,96506.63
2022-10-15T14:00:08.118Z,96524.47
2022-10-15T14:04:19.902Z,96523.84
2022-10-15T14:08:27.378Z,96524.69
2022-10-15T14:12:27.554Z,96521.03
2022-10-15T14:16:32.366Z,96516.72
2022-10-15T14:20:32.537Z,96525.13
2022-10-15T14:24:39.298Z,96525.44
2022-10-15T14:28:42.548Z,96528.06
2022-10-15T14:32:51.714Z,96525.88
2022-10-15T14:36:51.834Z,96551.50
2022-10-15T14:41:07.729Z,96545.63
2022-10-15T14:45:16.847Z,96546.25
2022-10-15T14:49:27.454Z,96552.63
2022-10-15T14:53:31.662Z,96535.31
2022-10-15T14:57:39.617Z,96536.41
2022-10-15T15:01:40.064Z,96537.94
2022-10-15T15:05:49.966Z,96553.03
2022-10-15T15:09:54.212Z,96541.34
2022-10-15T15:13:57.514Z,96541.88
2022-10-15T15:17:57.651Z,96535.31
2022-10-15T15:21:58.318Z,96535.56
2022-10-15T15:25:58.920Z,96546.06
2022-10-15T15:30:02.015Z,96550.16
2022-10-15T15:34:02.253Z,96549.59
2022-10-15T15:38:02.361Z,96558.28
2022-10-15T15:42:02.470Z,96556.47
2022-10-15T15:46:05.321Z,96543.81
2022-10-15T15:50:05.497Z,96516.81
2022-10-15T15:54:07.315Z,96548.78
2022-10-15T15:58:07.646Z,96563.03
2022-10-15T16:02:10.589Z,96546.97
2022-10-15T16:06:12.281Z,96541.75
2022-10-15T16:10:13.971Z,96541.38
2022-10-15T16:14:14.688Z,96574.06
2022-10-15T16:18:17.364Z,96571.28
2022-10-15T16:22:17.770Z,96575.78
2022-10-15T16:26:18.102Z,96572.34
2022-10-15T16:30:19.216Z,96568.72
2022-10-15T16:34:22.208Z,96575.25
2022-10-15T16:38:22.847Z,96585.44
2022-10-15T16:42:22.987Z,96585.09
2022-10-15T16:46:23.683Z,96583.03
2022-10-15T16:50:26.513Z,96584.91
2022-10-15T16:54:26.728Z,96590.69
2022-10-15T16:58:26.894Z,96599.94
2022-10-15T17:02:27.500Z,96603.75
2022-10-15T17:06:34.026Z,96616.84
2022-10-15T17:10:34.199Z,96594.13
2022-10-15T17:14:34.430Z,96625.91
2022-10-15T17:18:34.632Z,96634.06
2022-10-15T17:22:37.856Z,96582.72
2022-10-15T17:26:40.755Z,96634.91
2022-10-15T17:30:41.474Z,96649.94
2022-10-15T17:34:41.837Z,96633.06
2022-10-15T17:38:45.146Z,96628.97
2022-10-15T17:42:45.480Z,96661.03
2022-10-15T17:46:45.934Z,96651.47
2022-10-15T17:50:46.143Z,96668.34
2022-10-15T17:54:48.861Z,96665.09
2022-10-15T17:58:49.837Z,96660.94
2022-10-15T18:02:52.628Z,96662.94
2022-10-15T18:06:52.995Z,96663.41
2022-10-15T18:11:01.708Z,96657.25
2022-10-15T18:15:02.639Z,96686.66
2022-10-15T18:19:02.853Z,96678.53
2022-10-15T18:23:03.022Z,96683.34
2022-10-15T18:27:06.564Z,96671.72
2022-10-15T18:31:09.678Z,96675.72
2022-10-15T18:35:11.094Z,96688.78
2022-10-15T18:39:12.822Z,96677.63
2022-10-15T18:43:18.784Z,96678.75
2022-10-15T18:47:19.760Z,96687.78
2022-10-15T18:51:20.749Z,96677.75
2022-10-15T18:55:21.866Z,96696.72
2022-10-15T18:59:24.659Z,96710.66
2022-10-15T19:03:25.493Z,96707.09
2022-10-15T19:07:25.958Z,96713.13
2022-10-15T19:11:26.552Z,96719.69
2022-10-15T19:15:29.657Z,96705.25
2022-10-15T19:19:32.106Z,96718.97
2022-10-15T19:23:32.703Z,96712.59
2022-10-15T19:27:32.863Z,96716.88
2022-10-15T19:31:39.980Z,96717.06
2022-10-15T19:35:44.526Z,96716.47
2022-10-15T19:39:48.363Z,96694.50
2022-10-15T19:43:50.125Z,96713.56
2022-10-15T19:47:59.873Z,96712.94
2022-10-15T19:52:02.878Z,96730.63
2022-10-15T19:56:06.044Z,96734.78
2022-10-15T20:00:07.900Z,96735.25
2022-10-15T20:04:15.196Z,96722.78
2022-10-15T20:08:16.297Z,96739.84
2022-10-15T20:12:16.617Z,96746.47
2022-10-15T20:16:19.539Z,96742.56
2022-10-15T20:20:24.951Z,96747.91
2022-10-15T20:24:25.283Z,96758.41
2022-10-15T20:28:25.517Z,96765.06
2022-10-15T20:32:41.418Z,96759.97
2022-10-15T20:36:44.507Z,96767.84
2022-10-15T20:40:44.749Z,96769.59
2022-10-15T20:44:45.305Z,96772.41
2022-10-15T20:48:48.856Z,96784.78
2022-10-15T20:52:51.851Z,96786.69
2022-10-15T20:56:52.833Z,96783.63
2022-10-15T21:00:52.913Z,96802.16
2022-10-15T21:04:53.525Z,96803.22
2022-10-15T21:08:56.313Z,96812.16
2022-10-15T21:12:56.430Z,96815.97
2022-10-15T21:16:56.530Z,96811.94
2022-10-15T21:20:56.871Z,96824.47
2022-10-15T21:24:59.592Z,96830.22
2022-10-15T21:29:01.982Z,96826.78
2022-10-15T21:33:02.185Z,96837.38
2022-10-15T21:37:02.322Z,96840.16
2022-10-15T21:41:07.557Z,96830.13
2022-10-15T21:45:09.092Z,96833.72
2022-10-15T21:49:09.395Z,96830.28
2022-10-15T21:53:09.669Z,96825.59
2022-10-15T21:57:13.925Z,96828.63
2022-10-15T22:01:19.297Z,96834.75
2022-10-15T22:05:20.051Z,96829.72
2022-10-15T22:09:20.390Z,96829.59
2022-10-15T22:13:23.082Z,96845.13
2022-10-15T22:17:23.190Z,96848.72
2022-10-15T22:21:26.461Z,96837.31
2022-10-15T22:25:26.509Z,96838.91
2022-10-15T22:29:35.201Z,96851.59
2022-10-15T22:33:37.418Z,96854.78
2022-10-15T22:37:38.986Z,96861.25
2022-10-15T22:41:42.791Z,96856.53
2022-10-15T22:45:45.698Z,96851.59
2022-10-15T22:49:45.802Z,96857.44
2022-10-15T22:53:46.382Z,96849.91
2022-10-15T22:57:47.563Z,96853.88
2022-10-15T23:01:50.617Z,96861.22
2022-10-15T23:05:55.273Z,96857.91
2022-10-15T23:09:56.510Z,96859.16
2022-10-15T23:13:59.804Z,96852.06
2022-10-15T23:18:02.754Z,96855.75
2022-10-15T23:22:03.537Z,96865.81
2022-10-15T23:26:03.595Z,96846.03
2022-10-15T23:30:14.500Z,96859.94
2022-10-15T23:34:28.914Z,96860.56
2022-10-15T23:38:30.358Z,96862.03
2022-10-15T23:42:32.062Z,96865.41
2022-10-15T23:46:32.608Z,96871.44
2022-10-15T23:50:39.731Z,96875.53
2022-10-15T23:54:42.453Z,96873.56
2022-10-15T23:58:43.868Z,96872.91
